Time;durP1;ratioP1;P1;durP2;ratioP2;P2;SDS_P1;SDS_P2;PMS_P1;PMS_P2;Temp;Humidity;BMP_temperature;BMP_pressure;BME280_temperature;BME280_humidity;BME280_pressure;Samples;Min_cycle;Max_cycle;Signal;HPM_P1;HPM_P2
2023/12/16 00:01:22;;;;;;;10.10;3.20;;;6.60;99.90;;;;;;5071288;28;20032;-66
2023/12/16 00:03:48;;;;;;;15.77;3.90;;;6.60;99.90;;;;;;5089622;28;20036;-66
2023/12/16 00:06:14;;;;;;;17.38;3.90;;;6.60;99.90;;;;;;5075095;28;20036;-66
2023/12/16 00:08:40;;;;;;;7.20;4.32;;;6.60;99.90;;;;;;5114873;28;20044;-66
2023/12/16 00:11:05;;;;;;;18.08;4.00;;;6.60;99.90;;;;;;5096224;28;20185;-66
2023/12/16 00:13:31;;;;;;;6.47;2.95;;;6.60;99.90;;;;;;5093651;28;20051;-66
2023/12/16 00:15:57;;;;;;;14.50;4.30;;;6.60;99.90;;;;;;5096414;28;20131;-66
2023/12/16 00:18:23;;;;;;;11.45;3.35;;;6.60;99.90;;;;;;5109035;28;20039;-66
2023/12/16 00:20:49;;;;;;;5.43;3.05;;;6.60;99.90;;;;;;5110949;28;20054;-66
2023/12/16 00:23:15;;;;;;;8.15;3.05;;;6.60;99.90;;;;;;5097677;28;20064;-66
2023/12/16 00:25:40;;;;;;;11.27;3.63;;;6.60;99.90;;;;;;5101891;28;20479;-66
2023/12/16 00:28:06;;;;;;;10.02;3.85;;;6.60;99.90;;;;;;5104862;28;20028;-66
2023/12/16 00:30:32;;;;;;;10.02;3.22;;;6.60;99.90;;;;;;5112966;28;20040;-66
2023/12/16 00:32:58;;;;;;;7.57;3.40;;;6.60;99.90;;;;;;5104114;28;20126;-66
2023/12/16 00:35:24;;;;;;;9.02;3.78;;;6.50;99.90;;;;;;5098107;28;20055;-66
2023/12/16 00:37:50;;;;;;;14.85;3.97;;;6.60;99.90;;;;;;5105388;28;20123;-66
2023/12/16 00:40:15;;;;;;;9.27;3.33;;;6.60;99.90;;;;;;5102336;28;20043;-66
2023/12/16 00:42:41;;;;;;;11.05;3.28;;;6.60;99.90;;;;;;5096700;28;20166;-66
2023/12/16 00:45:07;;;;;;;9.55;3.20;;;6.60;99.90;;;;;;5113090;28;20514;-65
2023/12/16 00:47:33;;;;;;;5.28;3.85;;;6.60;99.90;;;;;;5080423;28;20032;-66
2023/12/16 00:49:58;;;;;;;7.03;3.47;;;6.60;99.90;;;;;;5090784;28;20550;-66
2023/12/16 00:52:24;;;;;;;7.80;3.05;;;6.60;99.90;;;;;;5096519;28;20032;-66
2023/12/16 00:54:51;;;;;;;10.75;3.20;;;6.60;99.90;;;;;;5101882;28;20040;-66
2023/12/16 00:57:16;;;;;;;7.95;3.17;;;6.60;99.90;;;;;;5082101;28;20105;-66
2023/12/16 00:59:45;;;;;;;9.48;2.92;;;6.60;99.90;;;;;;5106649;28;20039;-66
2023/12/16 01:02:10;;;;;;;11.25;3.90;;;6.70;99.90;;;;;;5097583;28;20036;-65
2023/12/16 01:04:36;;;;;;;11.68;3.38;;;6.60;99.90;;;;;;5104828;28;20124;-65
2023/12/16 01:07:02;;;;;;;18.23;5.38;;;6.60;99.90;;;;;;5097224;28;20127;-65
2023/12/16 01:09:28;;;;;;;12.32;3.40;;;6.60;99.90;;;;;;5090327;28;20042;-65
2023/12/16 01:11:53;;;;;;;6.03;2.85;;;6.60;99.90;;;;;;5102413;28;20549;-66
2023/12/16 01:14:19;;;;;;;6.97;3.28;;;6.60;99.90;;;;;;5080519;28;20044;-66
2023/12/16 01:16:45;;;;;;;9.60;3.20;;;6.60;99.90;;;;;;5099427;28;20123;-65
2023/12/16 01:19:10;;;;;;;8.02;2.95;;;6.50;99.90;;;;;;5085254;28;20059;-66
2023/12/16 01:21:40;;;;;;;14.77;4.30;;;6.50;99.90;;;;;;5085618;28;20051;-66
2023/12/16 01:24:06;;;;;;;12.50;3.45;;;6.50;99.90;;;;;;5083804;28;20058;-66
2023/12/16 01:26:32;;;;;;;12.65;3.58;;;6.50;99.90;;;;;;5086434;28;20040;-66
2023/12/16 01:28:57;;;;;;;7.65;3.47;;;6.40;99.90;;;;;;5103839;28;20031;-65
2023/12/16 01:31:23;;;;;;;11.75;3.78;;;6.40;99.90;;;;;;5061516;28;20568;-65
2023/12/16 01:33:49;;;;;;;9.45;3.42;;;6.40;99.90;;;;;;5098054;28;20058;-66
2023/12/16 01:36:15;;;;;;;11.75;3.03;;;6.40;99.90;;;;;;5120381;28;20017;-66
2023/12/16 01:38:40;;;;;;;8.35;3.35;;;6.40;99.90;;;;;;5101504;28;20055;-66
2023/12/16 01:41:06;;;;;;;10.23;3.15;;;6.40;99.90;;;;;;5102016;28;20047;-66
2023/12/16 01:43:32;;;;;;;10.90;3.35;;;6.40;99.90;;;;;;5097319;28;20067;-66
2023/12/16 01:46:05;;;;;;;17.45;3.65;;;6.30;99.90;;;;;;5097378;28;20050;-66
2023/12/16 01:48:32;;;;;;;7.38;2.70;;;6.30;99.90;;;;;;5090633;28;20122;-66
2023/12/16 01:50:58;;;;;;;7.57;2.70;;;6.30;99.90;;;;;;5090259;28;20043;-66
2023/12/16 01:53:27;;;;;;;7.80;3.08;;;6.40;99.90;;;;;;5094779;28;20043;-66
2023/12/16 01:55:53;;;;;;;15.65;5.43;;;6.40;99.90;;;;;;5100183;28;20039;-65
2023/12/16 01:58:19;;;;;;;6.55;3.00;;;6.30;99.90;;;;;;5094221;28;20070;-65
2023/12/16 02:00:47;;;;;;;7.70;2.53;;;6.30;99.90;;;;;;5101175;28;20089;-65
2023/12/16 02:03:14;;;;;;;7.82;3.42;;;6.20;99.90;;;;;;5092113;28;20036;-66
2023/12/16 02:05:41;;;;;;;11.35;3.42;;;6.20;99.90;;;;;;5087671;28;20093;-65
2023/12/16 02:08:07;;;;;;;9.00;3.25;;;6.20;99.90;;;;;;5089119;28;20150;-65
2023/12/16 02:10:33;;;;;;;9.75;2.88;;;6.20;99.90;;;;;;5105790;28;20116;-65
2023/12/16 02:13:02;;;;;;;8.63;3.15;;;6.20;99.90;;;;;;5090908;28;20047;-65
2023/12/16 02:15:28;;;;;;;13.50;3.70;;;6.10;99.90;;;;;;5094652;28;20475;-65
2023/12/16 02:17:53;;;;;;;11.32;3.40;;;6.10;99.90;;;;;;5076141;28;20036;-65
2023/12/16 02:20:19;;;;;;;9.13;2.67;;;6.10;99.90;;;;;;5107247;28;20039;-65
2023/12/16 02:22:46;;;;;;;5.85;2.65;;;6.10;99.90;;;;;;5075596;28;20434;-65
2023/12/16 02:25:13;;;;;;;10.27;3.45;;;6.00;99.90;;;;;;5111625;28;20075;-65
2023/12/16 02:27:40;;;;;;;10.07;3.22;;;6.00;99.90;;;;;;5096866;28;20047;-65
2023/12/16 02:30:07;;;;;;;11.57;3.03;;;6.00;99.90;;;;;;5098913;28;20552;-65
2023/12/16 02:32:33;;;;;;;7.47;2.88;;;5.90;99.90;;;;;;5078438;28;20115;-65
2023/12/16 02:34:59;;;;;;;8.73;3.45;;;5.90;99.90;;;;;;5107213;28;20115;-65
2023/12/16 02:37:24;;;;;;;4.72;2.00;;;5.90;99.90;;;;;;5091141;28;20056;-66
2023/12/16 02:39:50;;;;;;;12.13;2.72;;;5.90;99.90;;;;;;5096787;28;20047;-65
2023/12/16 02:42:16;;;;;;;10.02;2.83;;;6.00;99.90;;;;;;5099270;28;20036;-65
2023/12/16 02:44:41;;;;;;;8.85;3.58;;;6.00;99.90;;;;;;5076972;28;20042;-65
2023/12/16 02:47:08;;;;;;;9.32;2.63;;;6.00;99.90;;;;;;5094315;28;20048;-65
2023/12/16 02:49:34;;;;;;;10.85;2.75;;;5.90;99.90;;;;;;5091577;28;20036;-65
2023/12/16 02:52:00;;;;;;;7.28;3.30;;;5.90;99.90;;;;;;5091472;28;20043;-65
2023/12/16 02:54:27;;;;;;;8.05;2.80;;;5.90;99.90;;;;;;5104343;28;20040;-65
2023/12/16 02:56:52;;;;;;;10.77;3.25;;;5.90;99.90;;;;;;5094176;28;20043;-65
2023/12/16 02:59:18;;;;;;;6.75;2.72;;;5.90;99.90;;;;;;5089534;28;20048;-65
2023/12/16 03:01:44;;;;;;;9.82;2.88;;;5.80;99.90;;;;;;5090956;28;20044;-65
2023/12/16 03:04:09;;;;;;;8.70;2.92;;;5.90;99.90;;;;;;5072685;28;20134;-65
2023/12/16 03:06:41;;;;;;;6.70;2.72;;;5.90;99.90;;;;;;5106994;28;20506;-65
2023/12/16 03:09:06;;;;;;;6.55;2.72;;;5.90;99.90;;;;;;5072834;28;20140;-65
2023/12/16 03:11:32;;;;;;;10.52;2.58;;;5.90;99.90;;;;;;5105075;28;20488;-65
2023/12/16 03:13:58;;;;;;;12.90;3.22;;;5.80;99.90;;;;;;5095385;28;20047;-65
2023/12/16 03:16:24;;;;;;;14.13;3.00;;;5.80;99.90;;;;;;5108318;28;20083;-65
2023/12/16 03:18:49;;;;;;;9.65;2.63;;;5.80;99.90;;;;;;5063976;28;20028;-65
2023/12/16 03:21:15;;;;;;;8.20;3.05;;;5.80;99.90;;;;;;5065591;28;20093;-65
2023/12/16 03:23:41;;;;;;;11.82;2.45;;;5.70;99.90;;;;;;5093929;28;20040;-65
2023/12/16 03:26:07;;;;;;;12.13;2.72;;;5.70;99.90;;;;;;5107538;28;20040;-65
2023/12/16 03:28:32;;;;;;;13.18;2.75;;;5.60;99.90;;;;;;5094021;28;20036;-65
2023/12/16 03:30:58;;;;;;;8.13;3.47;;;5.70;99.90;;;;;;5090872;28;20105;-65
2023/12/16 03:33:24;;;;;;;9.68;2.50;;;5.70;99.90;;;;;;5095008;28;20113;-65
2023/12/16 03:35:49;;;;;;;11.20;2.95;;;5.70;99.90;;;;;;5099716;28;20028;-65
2023/12/16 03:38:15;;;;;;;9.80;2.85;;;5.70;99.90;;;;;;5084386;28;20536;-65
2023/12/16 03:40:41;;;;;;;8.57;2.80;;;5.70;99.90;;;;;;5088501;28;20044;-65
2023/12/16 03:43:07;;;;;;;16.88;4.80;;;5.70;99.90;;;;;;5099053;28;20122;-65
2023/12/16 03:45:32;;;;;;;11.98;3.13;;;5.70;99.90;;;;;;5100273;28;20086;-65
2023/12/16 03:47:58;;;;;;;11.13;3.42;;;5.60;99.90;;;;;;5093058;28;20048;-65
2023/12/16 03:50:24;;;;;;;6.97;3.10;;;5.60;99.90;;;;;;5091358;28;20131;-65
2023/12/16 03:52:49;;;;;;;11.98;3.08;;;5.60;99.90;;;;;;5065881;28;20097;-65
2023/12/16 03:55:15;;;;;;;7.85;2.80;;;5.60;99.90;;;;;;5098253;28;20043;-65
2023/12/16 03:57:41;;;;;;;10.18;3.53;;;5.60;99.90;;;;;;5056650;28;20489;-65
2023/12/16 04:00:08;;;;;;;10.65;3.58;;;5.60;99.90;;;;;;5079960;28;20035;-65
2023/12/16 04:02:34;;;;;;;11.40;3.50;;;5.60;99.90;;;;;;5095204;28;20485;-65
2023/12/16 04:05:00;;;;;;;11.35;3.35;;;5.60;99.90;;;;;;5101396;28;20035;-65
2023/12/16 04:07:25;;;;;;;13.82;3.30;;;5.50;99.90;;;;;;5105535;28;20028;-65
2023/12/16 04:09:51;;;;;;;7.72;3.42;;;5.50;99.90;;;;;;5092087;28;20101;-65
2023/12/16 04:12:17;;;;;;;16.90;3.42;;;5.50;99.90;;;;;;5122411;27;20429;-65
2023/12/16 04:14:43;;;;;;;11.60;3.70;;;5.50;99.90;;;;;;5081255;28;20382;-65
2023/12/16 04:17:09;;;;;;;8.95;3.00;;;5.50;99.90;;;;;;5093993;28;20039;-65
2023/12/16 04:19:36;;;;;;;7.20;2.95;;;5.50;99.90;;;;;;5104370;28;20032;-65
2023/12/16 04:22:02;;;;;;;12.60;3.47;;;5.50;99.90;;;;;;5100844;28;20074;-65
2023/12/16 04:24:27;;;;;;;7.18;2.83;;;5.50;99.90;;;;;;5105953;28;20063;-65
2023/12/16 04:26:55;;;;;;;7.07;2.95;;;5.50;99.90;;;;;;5107902;28;20419;-65
2023/12/16 04:29:21;;;;;;;10.85;3.10;;;5.50;99.90;;;;;;5091025;28;20082;-65
2023/12/16 04:31:46;;;;;;;13.40;3.65;;;5.50;99.90;;;;;;5091464;28;20119;-66
2023/12/16 04:34:12;;;;;;;9.98;3.08;;;5.50;99.90;;;;;;5098316;28;20071;-65
2023/12/16 04:36:38;;;;;;;9.10;2.63;;;5.40;99.90;;;;;;5089017;28;20044;-65
2023/12/16 04:39:07;;;;;;;18.92;2.90;;;5.40;99.90;;;;;;5088037;28;20069;-65
2023/12/16 04:41:33;;;;;;;14.80;3.40;;;5.40;99.90;;;;;;5083231;28;20059;-65
2023/12/16 04:43:59;;;;;;;6.63;2.88;;;5.50;99.90;;;;;;5105910;28;20192;-65
2023/12/16 04:46:25;;;;;;;7.43;2.50;;;5.50;99.90;;;;;;5105756;28;20119;-65
2023/12/16 04:48:51;;;;;;;6.05;2.40;;;5.50;99.90;;;;;;5102012;27;20193;-65
2023/12/16 04:51:19;;;;;;;13.93;3.30;;;5.60;99.90;;;;;;5099872;28;20032;-65
2023/12/16 04:53:45;;;;;;;14.52;4.10;;;5.50;99.90;;;;;;5101905;28;20124;-65
2023/12/16 04:56:11;;;;;;;10.93;3.60;;;5.50;99.90;;;;;;5104311;28;20097;-65
2023/12/16 04:58:36;;;;;;;8.32;2.67;;;5.50;99.90;;;;;;5101590;28;20024;-65
2023/12/16 05:01:03;;;;;;;17.55;4.07;;;5.50;99.90;;;;;;5095693;28;20040;-65
2023/12/16 05:03:31;;;;;;;9.27;3.85;;;5.50;99.90;;;;;;5098245;28;20054;-65
2023/12/16 05:05:57;;;;;;;7.68;3.47;;;5.50;99.90;;;;;;5099193;28;20032;-65
2023/12/16 05:08:23;;;;;;;12.02;3.03;;;5.50;99.90;;;;;;5104294;28;20127;-65
2023/12/16 05:10:48;;;;;;;10.43;3.10;;;5.50;99.90;;;;;;5089841;28;20047;-65
2023/12/16 05:13:15;;;;;;;17.33;3.78;;;5.50;99.90;;;;;;5107380;28;20477;-65
2023/12/16 05:15:41;;;;;;;10.45;3.17;;;5.50;99.90;;;;;;5109142;28;20382;-65
2023/12/16 05:18:08;;;;;;;8.80;2.67;;;5.50;99.90;;;;;;5091171;28;20448;-65
2023/12/16 05:20:34;;;;;;;6.75;2.53;;;5.50;99.90;;;;;;5100615;28;20504;-65
2023/12/16 05:23:02;;;;;;;12.52;3.22;;;5.50;99.90;;;;;;5104966;28;20032;-65
2023/12/16 05:25:29;;;;;;;14.27;3.63;;;5.60;99.90;;;;;;5110726;28;20130;-65
2023/12/16 05:27:58;;;;;;;10.13;2.88;;;5.50;99.90;;;;;;5073438;28;20100;-65
2023/12/16 05:30:24;;;;;;;7.68;3.00;;;5.50;99.90;;;;;;5097808;28;20048;-65
2023/12/16 05:32:50;;;;;;;16.95;2.90;;;5.60;99.90;;;;;;5100852;28;20453;-65
2023/12/16 05:35:16;;;;;;;6.35;3.17;;;5.60;99.90;;;;;;5112138;28;20134;-65
2023/12/16 05:37:41;;;;;;;14.15;3.33;;;5.60;99.90;;;;;;5075433;28;20048;-65
2023/12/16 05:40:08;;;;;;;12.63;4.00;;;5.60;99.90;;;;;;5089589;28;20043;-65
2023/12/16 05:42:35;;;;;;;8.80;3.50;;;5.50;99.90;;;;;;5094060;28;20476;-65
2023/12/16 05:45:01;;;;;;;8.35;3.63;;;5.50;99.90;;;;;;5083851;28;20119;-65
2023/12/16 05:47:26;;;;;;;16.45;3.97;;;5.50;99.90;;;;;;5091684;28;20112;-65
2023/12/16 05:49:52;;;;;;;12.88;3.65;;;5.50;99.90;;;;;;5091683;28;20442;-65
2023/12/16 05:52:18;;;;;;;12.55;3.40;;;5.50;99.90;;;;;;5109998;28;20043;-65
2023/12/16 05:54:43;;;;;;;10.63;4.03;;;5.50;99.90;;;;;;5102982;28;20505;-65
2023/12/16 05:57:09;;;;;;;19.00;3.28;;;5.50;99.90;;;;;;5106554;27;20040;-65
2023/12/16 05:59:35;;;;;;;11.48;4.25;;;5.50;99.90;;;;;;5079151;28;20036;-65
2023/12/16 06:02:01;;;;;;;14.13;4.38;;;5.50;99.90;;;;;;5100558;28;20043;-65
2023/12/16 06:04:27;;;;;;;9.05;3.28;;;5.50;99.90;;;;;;5104554;28;20082;-65
2023/12/16 06:06:53;;;;;;;10.80;3.75;;;5.50;99.90;;;;;;5098790;28;20083;-65
2023/12/16 06:09:19;;;;;;;15.23;3.83;;;5.40;99.90;;;;;;5094907;28;20106;-65
2023/12/16 06:11:44;;;;;;;11.52;4.00;;;5.40;99.90;;;;;;5074212;28;20400;-65
2023/12/16 06:14:10;;;;;;;13.70;4.55;;;5.30;99.90;;;;;;5090059;28;20111;-65
2023/12/16 06:16:36;;;;;;;16.27;4.55;;;5.30;99.90;;;;;;5092198;28;20531;-65
2023/12/16 06:19:04;;;;;;;18.80;3.97;;;5.30;99.90;;;;;;5073598;28;20158;-65
2023/12/16 06:21:30;;;;;;;16.00;5.20;;;5.30;99.90;;;;;;5089608;28;20039;-65
2023/12/16 06:23:58;;;;;;;12.75;3.70;;;5.20;99.90;;;;;;5086941;28;20044;-65
2023/12/16 06:26:24;;;;;;;20.17;4.40;;;5.20;99.90;;;;;;5094282;28;20043;-65
2023/12/16 06:28:50;;;;;;;11.13;4.13;;;5.20;99.90;;;;;;5079407;28;20044;-65
2023/12/16 06:31:19;;;;;;;12.05;4.32;;;5.20;99.90;;;;;;5084291;28;20517;-65
2023/12/16 06:33:45;;;;;;;11.93;4.00;;;5.20;99.90;;;;;;5104587;28;20052;-65
2023/12/16 06:36:11;;;;;;;12.95;4.43;;;5.20;99.90;;;;;;5090682;28;20038;-65
2023/12/16 06:38:38;;;;;;;18.13;5.32;;;5.20;99.90;;;;;;5085051;28;20044;-65
2023/12/16 06:41:05;;;;;;;14.27;4.15;;;5.20;99.90;;;;;;5091914;28;20055;-66
2023/12/16 06:43:30;;;;;;;14.80;4.28;;;5.10;99.90;;;;;;5089120;28;20032;-66
2023/12/16 06:45:56;;;;;;;9.15;3.85;;;5.10;99.90;;;;;;5082606;28;20036;-66
2023/12/16 06:48:22;;;;;;;14.55;4.25;;;5.10;99.90;;;;;;5067764;28;20040;-66
2023/12/16 06:50:51;;;;;;;12.00;3.85;;;5.10;99.90;;;;;;5079080;28;20035;-65
2023/12/16 06:53:17;;;;;;;15.55;4.10;;;5.10;99.90;;;;;;5090699;28;20035;-65
2023/12/16 06:55:42;;;;;;;15.38;4.10;;;5.20;99.90;;;;;;5088646;28;20440;-66
2023/12/16 06:58:08;;;;;;;17.85;5.70;;;5.20;99.90;;;;;;5090055;28;20404;-66
2023/12/16 07:00:34;;;;;;;12.13;4.80;;;5.20;99.90;;;;;;5090453;28;20090;-66
2023/12/16 07:03:00;;;;;;;15.45;5.32;;;5.20;99.90;;;;;;5101053;28;20489;-66
2023/12/16 07:05:27;;;;;;;11.98;4.45;;;5.20;99.90;;;;;;5072988;28;20393;-66
2023/12/16 07:07:53;;;;;;;14.05;4.60;;;5.30;99.90;;;;;;5099629;28;20044;-66
2023/12/16 07:10:19;;;;;;;18.98;5.15;;;5.20;99.90;;;;;;5086607;28;20036;-66
2023/12/16 07:12:45;;;;;;;26.42;7.82;;;5.60;99.90;;;;;;5095830;28;20075;-66
2023/12/16 07:15:11;;;;;;;15.68;5.22;;;5.20;99.90;;;;;;5099901;28;20074;-66
2023/12/16 07:17:36;;;;;;;16.58;4.47;;;5.30;99.90;;;;;;5062288;28;20043;-66
2023/12/16 07:20:03;;;;;;;15.63;5.03;;;5.30;99.90;;;;;;5106021;28;20559;-66
2023/12/16 07:22:29;;;;;;;15.95;5.00;;;5.30;99.90;;;;;;5078893;28;20047;-66
2023/12/16 07:24:56;;;;;;;16.65;5.72;;;5.30;99.90;;;;;;5094463;28;20044;-66
2023/12/16 07:27:22;;;;;;;14.63;4.38;;;5.40;99.90;;;;;;5086476;28;20093;-66
2023/12/16 07:29:48;;;;;;;17.35;5.57;;;5.50;99.90;;;;;;5082161;28;20044;-66
2023/12/16 07:32:13;;;;;;;15.77;5.60;;;5.50;99.90;;;;;;5083558;28;20119;-66
2023/12/16 07:34:40;;;;;;;19.40;4.70;;;5.50;99.90;;;;;;5095123;28;20078;-66
2023/12/16 07:37:06;;;;;;;22.08;5.68;;;5.50;99.90;;;;;;5099556;28;20052;-65
2023/12/16 07:39:32;;;;;;;12.43;4.93;;;5.50;99.90;;;;;;5100433;28;20066;-66
2023/12/16 07:41:57;;;;;;;16.17;5.40;;;5.60;99.90;;;;;;5097572;28;20047;-66
2023/12/16 07:44:24;;;;;;;14.65;5.50;;;5.60;99.90;;;;;;5091355;28;20051;-66
2023/12/16 07:46:49;;;;;;;22.08;5.45;;;5.60;99.90;;;;;;5085236;28;20071;-66
2023/12/16 07:49:17;;;;;;;16.58;5.22;;;5.60;99.90;;;;;;5087927;28;20074;-66
2023/12/16 07:51:43;;;;;;;13.73;4.80;;;5.60;99.90;;;;;;5074866;28;20040;-66
2023/12/16 07:54:11;;;;;;;19.92;5.20;;;5.60;99.90;;;;;;5091556;28;20538;-65
2023/12/16 07:56:36;;;;;;;18.15;5.53;;;5.70;99.90;;;;;;5091822;28;20075;-65
2023/12/16 07:59:02;;;;;;;20.85;5.47;;;5.70;99.90;;;;;;5088200;28;20445;-65
2023/12/16 08:01:28;;;;;;;11.48;5.57;;;5.80;99.90;;;;;;5094129;28;20426;-65
2023/12/16 08:03:53;;;;;;;12.32;5.57;;;5.70;99.90;;;;;;5090314;28;20511;-65
2023/12/16 08:06:20;;;;;;;15.77;5.53;;;5.80;99.90;;;;;;5089776;28;20040;-65
2023/12/16 08:08:46;;;;;;;15.02;5.72;;;5.80;99.90;;;;;;5071300;28;20044;-66
2023/12/16 08:11:12;;;;;;;15.60;5.55;;;5.80;99.90;;;;;;5073352;28;20450;-65
2023/12/16 08:13:38;;;;;;;14.48;6.13;;;5.80;99.90;;;;;;5109590;28;20036;-65
2023/12/16 08:16:04;;;;;;;26.80;5.95;;;5.80;99.90;;;;;;5094211;28;20663;-65
2023/12/16 08:18:31;;;;;;;20.55;6.43;;;5.80;99.90;;;;;;5105592;28;20046;-65
2023/12/16 08:20:56;;;;;;;20.60;7.53;;;5.90;99.90;;;;;;5093935;28;20027;-65
2023/12/16 08:23:25;;;;;;;11.73;5.40;;;5.90;99.90;;;;;;5070865;28;20572;-65
2023/12/16 08:25:51;;;;;;;20.30;6.68;;;5.90;99.90;;;;;;5101120;28;20047;-65
2023/12/16 08:28:17;;;;;;;19.67;6.35;;;5.90;99.90;;;;;;5097364;28;20044;-65
2023/12/16 08:30:43;;;;;;;21.45;6.95;;;5.90;99.90;;;;;;5099323;28;20472;-65
2023/12/16 08:33:09;;;;;;;19.05;7.95;;;6.00;99.90;;;;;;5113259;28;20132;-65
2023/12/16 08:35:36;;;;;;;14.73;5.65;;;5.90;99.90;;;;;;5079123;28;20507;-65
2023/12/16 08:38:02;;;;;;;20.77;5.97;;;6.00;99.90;;;;;;5101333;28;20061;-65
2023/12/16 08:40:28;;;;;;;16.58;5.80;;;6.00;99.90;;;;;;5109852;28;20051;-65
2023/12/16 08:42:54;;;;;;;15.27;6.07;;;6.00;99.90;;;;;;5094159;28;20492;-65
2023/12/16 08:45:20;;;;;;;19.50;6.22;;;6.00;99.90;;;;;;5094403;28;20024;-65
2023/12/16 08:47:46;;;;;;;23.92;7.18;;;6.00;99.90;;;;;;5086760;28;20052;-65
2023/12/16 08:50:11;;;;;;;19.15;7.13;;;6.00;99.90;;;;;;5089517;28;20036;-65
2023/12/16 08:52:37;;;;;;;19.20;6.10;;;6.00;99.90;;;;;;5088928;28;20040;-65
2023/12/16 08:55:04;;;;;;;17.75;5.97;;;6.00;99.90;;;;;;5090875;28;20081;-65
2023/12/16 08:57:30;;;;;;;13.80;5.70;;;6.10;99.90;;;;;;5085583;28;20113;-65
2023/12/16 08:59:56;;;;;;;20.77;6.20;;;6.10;99.90;;;;;;5090455;28;20048;-65
2023/12/16 09:02:21;;;;;;;25.65;6.25;;;6.10;99.90;;;;;;5087748;28;20043;-65
2023/12/16 09:04:48;;;;;;;21.90;6.05;;;6.20;99.90;;;;;;5093876;28;20067;-65
2023/12/16 09:07:13;;;;;;;23.60;6.13;;;6.20;99.90;;;;;;5088897;28;20117;-65
2023/12/16 09:09:39;;;;;;;15.90;6.20;;;6.20;99.90;;;;;;5072891;28;20496;-65
2023/12/16 09:12:06;;;;;;;13.63;5.85;;;6.30;99.90;;;;;;5056056;28;20055;-65
2023/12/16 09:14:32;;;;;;;17.30;6.82;;;6.30;99.90;;;;;;5096000;28;21132;-65
2023/12/16 09:16:58;;;;;;;14.05;5.97;;;6.40;99.90;;;;;;5088377;28;20049;-65
2023/12/16 09:19:24;;;;;;;24.33;7.13;;;6.40;99.90;;;;;;5086415;28;20082;-65
2023/12/16 09:21:49;;;;;;;20.00;6.18;;;6.40;99.90;;;;;;5086456;28;20536;-65
2023/12/16 09:24:15;;;;;;;18.10;7.07;;;6.40;99.90;;;;;;5086997;28;20126;-65
2023/12/16 09:26:41;;;;;;;24.88;7.65;;;6.40;99.90;;;;;;5087895;28;20040;-65
2023/12/16 09:29:09;;;;;;;13.95;5.40;;;6.40;99.90;;;;;;5087840;28;20039;-65
2023/12/16 09:31:34;;;;;;;19.25;5.82;;;6.50;99.90;;;;;;5093306;28;20046;-65
2023/12/16 09:34:00;;;;;;;17.70;6.53;;;6.40;99.90;;;;;;5112375;28;20043;-65
2023/12/16 09:36:29;;;;;;;24.42;6.45;;;6.40;99.90;;;;;;5120596;27;20126;-65
2023/12/16 09:38:55;;;;;;;28.02;6.80;;;6.40;99.90;;;;;;5100926;28;20062;-65
2023/12/16 09:41:25;;;;;;;19.55;6.70;;;6.50;99.90;;;;;;5101013;28;20070;-65
2023/12/16 09:43:55;;;;;;;24.17;7.25;;;6.50;99.90;;;;;;5112234;28;20047;-65
2023/12/16 09:46:24;;;;;;;20.75;6.32;;;6.50;99.90;;;;;;5100992;28;20089;-65
2023/12/16 09:48:51;;;;;;;19.15;6.43;;;6.50;99.90;;;;;;5110735;28;20044;-65
2023/12/16 09:51:17;;;;;;;20.77;7.38;;;6.50;99.90;;;;;;5099344;28;20035;-65
2023/12/16 09:53:43;;;;;;;17.73;6.53;;;6.50;99.90;;;;;;5074141;28;20100;-65
2023/12/16 09:56:11;;;;;;;19.60;6.32;;;6.50;99.90;;;;;;5078318;28;20032;-65
2023/12/16 09:58:41;;;;;;;23.40;6.22;;;6.50;99.90;;;;;;5110591;28;20400;-65
2023/12/16 10:01:08;;;;;;;20.02;7.07;;;6.40;99.90;;;;;;5097785;28;20115;-65
2023/12/16 10:03:36;;;;;;;22.75;6.68;;;6.40;99.90;;;;;;5110461;28;20031;-65
2023/12/16 10:06:02;;;;;;;30.02;8.45;;;6.40;99.90;;;;;;5094379;28;20028;-65
2023/12/16 10:08:28;;;;;;;17.33;7.25;;;6.40;99.90;;;;;;5081578;28;20222;-65
2023/12/16 10:11:01;;;;;;;21.50;7.93;;;6.40;99.90;;;;;;5058715;28;20436;-65
2023/12/16 10:13:28;;;;;;;18.60;6.68;;;6.40;99.90;;;;;;5111161;28;20039;-65
2023/12/16 10:15:54;;;;;;;26.52;7.30;;;6.30;99.90;;;;;;5101890;28;20032;-65
2023/12/16 10:18:20;;;;;;;21.67;8.10;;;6.40;99.90;;;;;;5110691;28;20538;-65
2023/12/16 10:20:45;;;;;;;22.45;7.32;;;6.40;99.90;;;;;;5102770;28;20043;-65
2023/12/16 10:23:13;;;;;;;22.35;7.18;;;6.40;99.90;;;;;;5108591;28;20031;-65
2023/12/16 10:25:41;;;;;;;24.20;8.77;;;6.40;99.90;;;;;;5110432;28;20047;-66
2023/12/16 10:28:07;;;;;;;30.05;8.38;;;6.40;99.90;;;;;;5105734;28;20050;-66
2023/12/16 10:30:33;;;;;;;29.98;8.23;;;6.40;99.90;;;;;;5111154;28;20040;-65
2023/12/16 10:33:03;;;;;;;27.05;8.32;;;6.40;99.90;;;;;;5113311;28;20035;-66
2023/12/16 10:35:31;;;;;;;25.15;7.55;;;6.40;99.90;;;;;;5111826;28;20040;-65
2023/12/16 10:37:57;;;;;;;28.48;8.02;;;6.40;99.90;;;;;;5113201;28;20036;-65
2023/12/16 10:40:23;;;;;;;29.85;7.97;;;6.40;99.90;;;;;;5108270;28;20040;-65
2023/12/16 10:42:49;;;;;;;20.70;7.15;;;6.40;99.90;;;;;;5090069;28;20063;-66
2023/12/16 10:45:15;;;;;;;23.17;6.97;;;6.40;99.90;;;;;;5091375;28;20066;-66
2023/12/16 10:47:44;;;;;;;26.92;9.15;;;6.40;99.90;;;;;;5108727;28;20075;-65
2023/12/16 10:50:15;;;;;;;25.67;10.05;;;6.40;99.90;;;;;;5112941;28;20043;-65
2023/12/16 10:52:54;;;;;;;31.05;7.97;;;6.50;99.90;;;;;;5108810;28;20035;-66
2023/12/16 10:55:31;;;;;;;29.70;9.02;;;6.50;99.90;;;;;;5111619;28;20123;-66
2023/12/16 10:58:08;;;;;;;22.23;9.68;;;6.50;99.90;;;;;;5109258;28;20038;-66
2023/12/16 11:00:37;;;;;;;18.02;8.85;;;6.50;99.90;;;;;;5099035;28;20118;-66
2023/12/16 11:03:35;;;;;;;25.98;9.43;;;6.60;99.90;;;;;;5106406;28;20043;-65
2023/12/16 11:06:07;;;;;;;28.85;9.05;;;6.60;99.90;;;;;;5101281;28;20489;-66
2023/12/16 11:08:34;;;;;;;28.88;9.43;;;6.60;99.90;;;;;;5066835;28;20119;-66
2023/12/16 11:11:01;;;;;;;26.35;9.30;;;6.60;99.90;;;;;;5088059;28;20054;-65
2023/12/16 11:13:28;;;;;;;21.95;9.18;;;6.60;99.90;;;;;;5110339;28;20074;-66
2023/12/16 11:16:02;;;;;;;25.70;10.77;;;6.60;99.90;;;;;;5108585;28;20493;-66
2023/12/16 11:18:30;;;;;;;28.95;12.13;;;6.60;99.90;;;;;;5095988;28;20095;-65
2023/12/16 11:21:04;;;;;;;30.20;10.27;;;6.60;99.90;;;;;;5100199;28;20101;-65
2023/12/16 11:23:30;;;;;;;22.48;10.82;;;6.70;99.90;;;;;;5108931;28;20035;-65
2023/12/16 11:26:02;;;;;;;28.45;9.82;;;6.90;99.90;;;;;;5107589;28;20527;-65
2023/12/16 11:28:29;;;;;;;23.65;12.00;;;6.70;99.90;;;;;;5109335;28;20039;-65
2023/12/16 11:30:57;;;;;;;25.55;10.52;;;6.70;99.90;;;;;;5110587;28;20045;-65
2023/12/16 11:33:23;;;;;;;26.08;10.55;;;6.80;99.90;;;;;;5107333;28;20460;-65
2023/12/16 11:35:53;;;;;;;29.45;11.90;;;6.80;99.90;;;;;;5094289;28;20084;-65
2023/12/16 11:38:38;;;;;;;43.38;12.23;;;6.80;99.90;;;;;;5102059;28;20130;-65
2023/12/16 11:41:05;;;;;;;32.58;12.45;;;6.80;99.90;;;;;;5108275;28;20483;-65
2023/12/16 11:43:49;;;;;;;33.75;13.18;;;6.90;99.90;;;;;;5084938;28;20043;-65
2023/12/16 11:46:37;;;;;;;41.42;13.27;;;6.90;99.90;;;;;;5108198;28;20067;-65
2023/12/16 11:49:04;;;;;;;41.95;14.27;;;6.90;99.90;;;;;;5088101;28;20039;-65
2023/12/16 11:51:34;;;;;;;47.90;15.05;;;6.90;99.90;;;;;;5084674;28;20032;-65
2023/12/16 11:54:00;;;;;;;31.55;13.75;;;7.00;99.90;;;;;;5104998;28;20039;-65
2023/12/16 11:56:27;;;;;;;42.55;14.50;;;7.00;99.90;;;;;;5106019;28;20080;-65
2023/12/16 11:58:59;;;;;;;41.30;14.55;;;7.00;99.90;;;;;;5101556;28;20046;-65
2023/12/16 12:01:29;;;;;;;42.83;15.38;;;7.00;99.90;;;;;;5107433;28;20027;-65
2023/12/16 12:03:55;;;;;;;40.25;14.60;;;7.00;99.90;;;;;;5082555;28;20513;-65
2023/12/16 12:06:22;;;;;;;43.60;14.35;;;7.10;99.90;;;;;;5105207;28;20065;-65
2023/12/16 12:08:48;;;;;;;34.25;14.60;;;7.10;99.90;;;;;;5098627;28;20037;-65
2023/12/16 12:11:16;;;;;;;42.13;15.15;;;7.10;99.90;;;;;;5109943;28;20119;-65
2023/12/16 12:13:43;;;;;;;31.13;12.75;;;7.10;99.90;;;;;;5097219;28;20116;-65
2023/12/16 12:16:12;;;;;;;36.83;13.93;;;7.10;99.90;;;;;;5110551;28;20063;-65
2023/12/16 12:18:41;;;;;;;35.47;14.38;;;7.10;99.90;;;;;;5094934;28;20046;-65
2023/12/16 12:21:08;;;;;;;40.45;15.13;;;7.20;99.90;;;;;;5112894;28;20112;-65
2023/12/16 12:23:34;;;;;;;31.20;14.68;;;7.20;99.90;;;;;;5100724;28;20102;-65
2023/12/16 12:26:03;;;;;;;40.90;15.82;;;7.20;99.90;;;;;;5099187;28;20620;-65
2023/12/16 12:28:28;;;;;;;35.97;15.35;;;7.20;99.90;;;;;;5098325;28;20093;-65
2023/12/16 12:31:08;;;;;;;39.45;17.05;;;7.20;99.90;;;;;;5112520;28;20571;-65
2023/12/16 12:33:35;;;;;;;31.70;16.10;;;7.20;99.90;;;;;;5100753;28;20040;-65
2023/12/16 12:36:01;;;;;;;33.33;15.10;;;7.20;99.90;;;;;;5112228;28;20043;-65
2023/12/16 12:38:33;;;;;;;31.92;14.65;;;7.20;99.90;;;;;;5112387;28;20055;-65
2023/12/16 12:41:02;;;;;;;34.07;14.93;;;7.30;99.90;;;;;;5112292;28;20054;-66
2023/12/16 12:43:29;;;;;;;34.75;14.95;;;7.30;99.90;;;;;;5086648;28;20557;-65
2023/12/16 12:46:07;;;;;;;32.58;13.77;;;7.30;99.90;;;;;;5113549;28;20084;-65